createdAt,value
2023-03-29T00:03:41.997Z,557.00
2023-03-29T00:07:42.078Z,556.00
2023-03-29T00:11:42.401Z,553.00
2023-03-29T00:15:42.486Z,556.00
2023-03-29T00:19:42.698Z,559.00
2023-03-29T00:23:42.904Z,558.00
2023-03-29T00:27:43.091Z,554.00
2023-03-29T00:31:43.404Z,551.00
2023-03-29T00:35:43.578Z,550.00
2023-03-29T00:39:43.736Z,542.00
2023-03-29T00:43:43.900Z,544.00
2023-03-29T00:47:44.153Z,542.00
2023-03-29T00:51:44.334Z,543.00
2023-03-29T00:55:44.548Z,540.00
2023-03-29T00:59:44.746Z,543.00
2023-03-29T01:03:45.001Z,543.00
2023-03-29T01:07:45.177Z,545.00
2023-03-29T01:11:45.418Z,546.00
2023-03-29T01:15:45.628Z,547.00
2023-03-29T01:19:45.827Z,549.00
2023-03-29T01:23:46.087Z,546.00
2023-03-29T01:27:46.306Z,537.00
2023-03-29T01:31:46.572Z,536.00
2023-03-29T01:35:46.755Z,536.00
2023-03-29T01:39:47.018Z,534.00
2023-03-29T01:43:47.209Z,538.00
2023-03-29T01:47:47.562Z,535.00
2023-03-29T01:51:47.650Z,535.00
2023-03-29T01:55:47.867Z,539.00
2023-03-29T01:59:48.096Z,540.00
2023-03-29T02:03:48.355Z,541.00
2023-03-29T02:07:48.538Z,544.00
2023-03-29T02:11:48.819Z,539.00
2023-03-29T02:15:49.087Z,541.00
2023-03-29T02:19:49.190Z,541.00
2023-03-29T02:23:49.425Z,542.00
2023-03-29T02:27:49.664Z,537.00
2023-03-29T02:31:49.850Z,538.00
2023-03-29T02:35:50.112Z,534.00
2023-03-29T02:39:50.288Z,539.00
2023-03-29T02:43:50.502Z,535.00
2023-03-29T02:47:50.787Z,537.00
2023-03-29T02:51:51.015Z,539.00
2023-03-29T02:55:51.254Z,533.00
2023-03-29T02:59:51.504Z,531.00
2023-03-29T03:03:51.863Z,531.00
2023-03-29T03:07:51.946Z,530.00
2023-03-29T03:11:52.169Z,531.00
2023-03-29T03:15:52.465Z,531.00
2023-03-29T03:19:52.406Z,530.00
2023-03-29T03:23:52.413Z,528.00
2023-03-29T03:27:52.393Z,526.00
2023-03-29T03:31:53.957Z,524.00
2023-03-29T03:35:52.417Z,528.00
2023-03-29T03:39:52.335Z,526.00
2023-03-29T03:43:52.552Z,523.00
2023-03-29T03:47:52.577Z,525.00
2023-03-29T03:51:52.736Z,527.00
2023-03-29T03:55:52.480Z,522.00
2023-03-29T03:59:52.474Z,522.00
2023-03-29T04:03:52.569Z,519.00
2023-03-29T04:07:52.473Z,526.00
2023-03-29T04:11:52.460Z,522.00
2023-03-29T04:15:52.485Z,522.00
2023-03-29T04:19:52.412Z,523.00
2023-03-29T04:23:52.465Z,522.00
2023-03-29T04:27:52.701Z,521.00
2023-03-29T04:31:52.878Z,516.00
2023-03-29T04:35:52.785Z,517.00
2023-03-29T04:39:52.696Z,519.00
2023-03-29T04:43:52.719Z,527.00
2023-03-29T04:47:52.742Z,527.00
2023-03-29T04:51:52.709Z,522.00
2023-03-29T04:55:52.686Z,521.00
2023-03-29T04:59:52.684Z,525.00
2023-03-29T05:03:52.721Z,525.00
2023-03-29T05:07:52.921Z,522.00
2023-03-29T05:11:52.912Z,524.00
2023-03-29T05:15:52.942Z,526.00
2023-03-29T05:19:52.844Z,521.00
2023-03-29T05:23:52.832Z,522.00
2023-03-29T05:27:52.817Z,518.00
2023-03-29T05:31:52.823Z,524.00
2023-03-29T05:35:52.841Z,527.00
2023-03-29T05:39:52.783Z,528.00
2023-03-29T05:43:52.772Z,525.00
2023-03-29T05:47:52.861Z,536.00
2023-03-29T05:51:53.270Z,539.00
2023-03-29T05:55:52.778Z,572.00
2023-03-29T05:59:52.727Z,599.00
2023-03-29T06:03:52.933Z,621.00
2023-03-29T06:07:52.796Z,659.00
2023-03-29T06:11:52.665Z,656.00
2023-03-29T06:15:52.654Z,670.00
2023-03-29T06:19:52.633Z,684.00
2023-03-29T06:23:52.632Z,700.00
2023-03-29T06:27:52.816Z,700.00
2023-03-29T06:31:53.080Z,703.00
2023-03-29T06:35:53.300Z,696.00
2023-03-29T06:39:53.543Z,705.00
2023-03-29T06:43:53.773Z,698.00
2023-03-29T06:47:54.392Z,698.00
2023-03-29T06:51:54.209Z,694.00
2023-03-29T06:55:54.388Z,704.00
2023-03-29T06:59:55.111Z,737.00
2023-03-29T07:03:54.865Z,776.00
2023-03-29T07:07:54.954Z,811.00
2023-03-29T07:11:55.091Z,838.00
2023-03-29T07:15:55.214Z,856.00
2023-03-29T07:19:55.307Z,874.00
2023-03-29T07:23:55.393Z,889.00
2023-03-29T07:27:55.828Z,899.00
2023-03-29T07:31:56.343Z,944.00
2023-03-29T09:35:57.412Z,1822.00
2023-03-29T09:39:57.893Z,1922.00
2023-03-29T09:43:57.914Z,1583.00
2023-03-29T09:47:57.910Z,1534.00
2023-03-29T09:51:58.353Z,1532.00
2023-03-29T09:55:57.990Z,1343.00
2023-03-29T09:59:58.033Z,1369.00
2023-03-29T10:03:58.182Z,1346.00
2023-03-29T10:07:58.192Z,1359.00
2023-03-29T10:11:58.468Z,1338.00
2023-03-29T10:15:58.443Z,1260.00
2023-03-29T10:19:58.529Z,1252.00
2023-03-29T10:23:58.660Z,1199.00
2023-03-29T10:27:58.878Z,1167.00
2023-03-29T10:31:59.096Z,1231.00
2023-03-29T10:35:59.455Z,1225.00
2023-03-29T10:39:59.396Z,1205.00
2023-03-29T10:43:59.069Z,1185.00
2023-03-29T10:47:59.185Z,1210.00
2023-03-29T10:51:59.102Z,1130.00
2023-03-29T10:55:59.146Z,1116.00
2023-03-29T10:59:59.170Z,1257.00
2023-03-29T11:03:59.283Z,1268.00
2023-03-29T11:07:59.194Z,1261.00
2023-03-29T11:12:14.527Z,1248.00
2023-03-29T11:16:00.410Z,1236.00
2023-03-29T11:20:06.196Z,1139.00
2023-03-29T11:23:59.253Z,1173.00
2023-03-29T11:27:59.413Z,1153.00
2023-03-29T11:31:59.552Z,1162.00
2023-03-29T11:35:59.255Z,1106.00
2023-03-29T11:39:59.200Z,1073.00
2023-03-29T11:43:59.178Z,736.00
2023-03-29T11:47:59.389Z,761.00
2023-03-29T11:51:59.423Z,661.00
2023-03-29T11:55:59.459Z,657.00
2023-03-29T11:59:59.498Z,614.00
2023-03-29T12:03:59.583Z,587.00
2023-03-29T12:07:59.689Z,576.00
2023-03-29T12:11:59.755Z,559.00
2023-03-29T12:15:59.860Z,545.00
2023-03-29T12:20:00.003Z,539.00
2023-03-29T12:24:00.156Z,525.00
2023-03-29T12:28:00.336Z,507.00
2023-03-29T12:32:00.502Z,494.00
2023-03-29T12:36:00.688Z,490.00
2023-03-29T12:40:00.810Z,483.00
2023-03-29T12:44:00.929Z,480.00
2023-03-29T12:48:01.162Z,471.00
2023-03-29T12:52:01.330Z,475.00
2023-03-29T12:56:02.226Z,474.00
2023-03-29T13:00:01.662Z,475.00
2023-03-29T13:04:01.852Z,470.00
2023-03-29T13:08:01.992Z,476.00
2023-03-29T13:12:02.134Z,474.00
2023-03-29T13:16:02.646Z,486.00
2023-03-29T13:20:02.420Z,483.00
2023-03-29T13:24:02.574Z,477.00
2023-03-29T13:28:02.788Z,488.00
2023-03-29T13:32:03.039Z,518.00
2023-03-29T13:36:03.319Z,549.00
2023-03-29T13:40:03.152Z,559.00
2023-03-29T13:44:03.242Z,578.00
2023-03-29T13:48:05.690Z,589.00
2023-03-29T13:52:03.270Z,587.00
2023-03-29T13:56:03.522Z,591.00
2023-03-29T14:00:03.206Z,587.00
2023-03-29T14:04:03.180Z,585.00
2023-03-29T14:08:03.094Z,594.00
2023-03-29T14:12:03.087Z,597.00
2023-03-29T14:16:03.242Z,599.00
2023-03-29T14:20:02.950Z,600.00
2023-03-29T14:24:02.916Z,598.00
2023-03-29T14:28:02.841Z,595.00
2023-03-29T14:32:02.812Z,603.00
2023-03-29T14:36:02.987Z,601.00
2023-03-29T14:40:02.712Z,604.00
2023-03-29T14:44:02.648Z,608.00
2023-03-29T14:48:02.723Z,608.00
2023-03-29T14:52:02.752Z,610.00
2023-03-29T14:56:03.045Z,609.00
2023-03-29T15:00:03.036Z,612.00
2023-03-29T15:04:03.053Z,608.00
2023-03-29T15:08:03.037Z,610.00
2023-03-29T15:12:03.052Z,615.00
2023-03-29T15:16:05.949Z,617.00
2023-03-29T15:20:03.131Z,616.00
2023-03-29T15:24:03.065Z,613.00
2023-03-29T15:28:02.980Z,619.00
2023-03-29T15:32:03.027Z,619.00
2023-03-29T15:36:03.028Z,611.00
2023-03-29T15:40:02.854Z,609.00
2023-03-29T15:44:02.787Z,613.00
2023-03-29T15:48:02.853Z,611.00
2023-03-29T15:52:02.809Z,605.00
2023-03-29T15:56:03.167Z,601.00
2023-03-29T16:00:02.741Z,605.00
2023-03-29T16:04:02.820Z,598.00
2023-03-29T16:08:02.864Z,597.00
2023-03-29T16:12:02.927Z,599.00
2023-03-29T16:16:03.346Z,594.00
2023-03-29T16:20:03.076Z,596.00
2023-03-29T16:24:03.124Z,594.00
2023-03-29T16:28:03.236Z,590.00
2023-03-29T16:32:05.349Z,590.00
2023-03-29T16:36:03.783Z,590.00
2023-03-29T16:40:03.320Z,585.00
2023-03-29T16:44:03.359Z,590.00
2023-03-29T16:48:03.435Z,589.00
2023-03-29T16:52:03.421Z,582.00
2023-03-29T16:56:03.608Z,578.00
2023-03-29T17:00:03.424Z,571.00
2023-03-29T17:04:03.603Z,574.00
2023-03-29T17:08:03.503Z,568.00
2023-03-29T17:12:03.513Z,566.00
2023-03-29T17:16:03.746Z,565.00
2023-03-29T17:20:03.578Z,566.00
2023-03-29T17:24:03.620Z,568.00
2023-03-29T17:28:03.616Z,568.00
2023-03-29T17:32:03.656Z,563.00
2023-03-29T17:36:04.035Z,562.00
2023-03-29T17:40:03.681Z,557.00
2023-03-29T17:44:03.705Z,560.00
2023-03-29T17:48:06.163Z,558.00
2023-03-29T17:52:03.570Z,553.00
2023-03-29T17:56:03.737Z,549.00
2023-03-29T18:00:03.552Z,546.00
2023-03-29T18:04:03.511Z,553.00
2023-03-29T18:08:03.477Z,554.00
2023-03-29T18:12:03.484Z,562.00
2023-03-29T18:16:03.572Z,564.00
2023-03-29T18:20:03.363Z,566.00
2023-03-29T18:24:03.364Z,563.00
2023-03-29T18:28:03.315Z,552.00
2023-03-29T18:32:03.403Z,549.00
2023-03-29T18:36:03.539Z,549.00
2023-03-29T18:40:03.233Z,548.00
2023-03-29T18:44:03.230Z,546.00
2023-03-29T18:48:03.245Z,538.00
2023-03-29T18:52:03.242Z,538.00
2023-03-29T18:56:03.403Z,538.00
2023-03-29T19:00:03.310Z,537.00
2023-03-29T19:04:03.321Z,532.00
2023-03-29T19:08:03.301Z,529.00
2023-03-29T19:12:03.322Z,522.00
2023-03-29T19:16:03.619Z,529.00
2023-03-29T19:20:03.365Z,522.00
2023-03-29T19:24:03.359Z,525.00
2023-03-29T19:28:03.425Z,529.00
2023-03-29T19:32:03.413Z,531.00
2023-03-29T19:36:03.795Z,526.00
2023-03-29T19:40:03.640Z,521.00
2023-03-29T19:44:03.686Z,526.00
2023-03-29T19:48:03.880Z,529.00
2023-03-29T19:52:03.858Z,524.00
2023-03-29T19:56:04.144Z,521.00
2023-03-29T20:00:04.022Z,519.00
2023-03-29T20:04:04.158Z,513.00
2023-03-29T20:08:04.250Z,510.00
2023-03-29T20:12:04.353Z,511.00
2023-03-29T20:16:04.433Z,510.00
2023-03-29T20:20:04.537Z,516.00
2023-03-29T20:24:04.636Z,516.00
2023-03-29T20:28:04.759Z,511.00
2023-03-29T20:32:04.912Z,510.00
2023-03-29T20:36:05.067Z,499.00
2023-03-29T20:40:05.061Z,502.00
2023-03-29T20:44:05.151Z,507.00
2023-03-29T20:48:05.271Z,505.00
2023-03-29T20:52:05.358Z,505.00
2023-03-29T20:56:05.488Z,505.00
2023-03-29T21:00:05.592Z,504.00
2023-03-29T21:04:05.747Z,505.00
2023-03-29T21:08:05.834Z,505.00
2023-03-29T21:12:05.943Z,503.00
2023-03-29T21:16:06.175Z,499.00
2023-03-29T21:20:06.195Z,491.00
2023-03-29T21:24:06.276Z,498.00
2023-03-29T21:28:06.409Z,500.00
2023-03-29T21:32:06.616Z,501.00
2023-03-29T21:36:06.698Z,502.00
2023-03-29T21:40:06.734Z,496.00
2023-03-29T21:44:06.877Z,493.00
2023-03-29T21:48:06.994Z,491.00
2023-03-29T21:52:07.086Z,493.00
2023-03-29T21:56:07.191Z,495.00
2023-03-29T22:00:07.350Z,496.00
2023-03-29T22:04:07.428Z,494.00
2023-03-29T22:08:07.563Z,497.00
2023-03-29T22:12:07.688Z,499.00
2023-03-29T22:16:07.876Z,497.00
2023-03-29T22:20:07.936Z,495.00
2023-03-29T22:24:08.019Z,496.00
2023-03-29T22:28:08.222Z,492.00
2023-03-29T22:32:08.350Z,498.00
2023-03-29T22:36:08.481Z,495.00
2023-03-29T22:40:08.554Z,493.00
2023-03-29T22:44:08.701Z,482.00
2023-03-29T22:48:08.833Z,492.00
2023-03-29T22:52:08.953Z,494.00
2023-03-29T22:56:09.127Z,490.00
2023-03-29T23:00:09.528Z,490.00
2023-03-29T23:04:09.315Z,490.00
2023-03-29T23:08:09.425Z,490.00
2023-03-29T23:12:09.523Z,488.00
2023-03-29T23:16:09.710Z,489.00
2023-03-29T23:20:09.783Z,482.00
2023-03-29T23:24:09.953Z,482.00
2023-03-29T23:28:10.031Z,482.00
2023-03-29T23:32:10.201Z,482.00
2023-03-29T23:36:10.421Z,483.00
2023-03-29T23:40:10.461Z,484.00
2023-03-29T23:44:10.638Z,482.00
2023-03-29T23:48:10.762Z,483.00
2023-03-29T23:52:10.891Z,478.00
2023-03-29T23:56:11.028Z,481.00
